Time;durP1;ratioP1;P1;durP2;ratioP2;P2;SDS_P1;SDS_P2;PMS_P1;PMS_P2;Temp;Humidity;BMP_temperature;BMP_pressure;BME280_temperature;BME280_humidity;BME280_pressure;Samples;Min_cycle;Max_cycle;Signal;HPM_P1;HPM_P2
2023/01/28 00:01:16;;;;;;;3.70;1.60;;;;;;;0.35;100.00;101907.75;5156869;28;20118;-75
2023/01/28 00:03:50;;;;;;;3.10;1.25;;;;;;;0.24;100.00;101906.56;5153617;28;20091;-75
2023/01/28 00:06:21;;;;;;;2.57;1.13;;;;;;;0.18;100.00;101911.56;5153065;28;20030;-75
2023/01/28 00:08:51;;;;;;;4.05;0.95;;;;;;;0.20;100.00;101920.19;5153708;28;20492;-75
2023/01/28 00:11:22;;;;;;;2.72;0.77;;;;;;;0.16;100.00;101923.50;5150035;28;20038;-74
2023/01/28 00:13:53;;;;;;;2.60;0.90;;;;;;;0.18;100.00;101919.28;5156904;28;20066;-74
2023/01/28 00:16:25;;;;;;;4.82;0.93;;;;;;;0.23;100.00;101919.41;5152277;28;20455;-75
2023/01/28 00:18:56;;;;;;;5.07;0.93;;;;;;;0.18;100.00;101916.69;5147093;28;20722;-74
2023/01/28 00:21:26;;;;;;;2.75;0.90;;;;;;;0.19;100.00;101908.16;5151178;28;20031;-74
2023/01/28 00:23:56;;;;;;;2.50;0.80;;;;;;;0.28;100.00;101903.28;5153725;28;20034;-75
2023/01/28 00:26:27;;;;;;;3.00;0.80;;;;;;;0.22;100.00;101900.53;5146057;28;20125;-74
2023/01/28 00:28:57;;;;;;;3.65;1.20;;;;;;;0.34;100.00;101895.72;5152216;28;20106;-74
2023/01/28 00:34:00;;;;;;;2.75;0.75;;;;;;;0.35;100.00;101899.19;5177412;28;20076;-73
2023/01/28 00:36:30;;;;;;;4.80;1.00;;;;;;;0.47;100.00;101905.50;5179012;28;20026;-74
2023/01/28 00:39:01;;;;;;;3.92;1.10;;;;;;;0.51;100.00;101902.16;5179143;28;20022;-73
2023/01/28 00:41:31;;;;;;;4.88;1.30;;;;;;;0.46;100.00;101906.34;5180686;28;20181;-74
2023/01/28 00:44:02;;;;;;;7.28;1.20;;;;;;;0.50;100.00;101903.00;5163049;28;20030;-72
2023/01/28 00:46:32;;;;;;;4.00;1.13;;;;;;;0.61;100.00;101906.75;5155739;28;20029;-73
2023/01/28 00:49:02;;;;;;;2.97;0.90;;;;;;;0.55;100.00;101908.28;5176416;28;20044;-74
2023/01/28 00:51:33;;;;;;;6.18;1.10;;;;;;;0.53;100.00;101910.78;5173466;28;20037;-73
2023/01/28 00:54:03;;;;;;;6.53;1.58;;;;;;;0.59;100.00;101907.50;5170611;28;20113;-74
2023/01/28 00:56:35;;;;;;;5.00;1.05;;;;;;;0.76;100.00;101908.81;5168367;28;20034;-73
2023/01/28 00:59:06;;;;;;;6.03;1.30;;;;;;;0.85;100.00;101917.63;5169014;28;20125;-73
2023/01/28 01:01:36;;;;;;;5.55;1.30;;;;;;;0.93;100.00;101920.38;5167086;28;20114;-72
2023/01/28 01:04:06;;;;;;;4.72;1.40;;;;;;;1.01;100.00;101924.00;5172416;28;20068;-73
2023/01/28 01:06:39;;;;;;;6.40;1.30;;;;;;;0.92;100.00;101926.38;5161381;28;20458;-74
2023/01/28 01:09:11;;;;;;;7.57;1.10;;;;;;;0.91;100.00;101917.75;5168346;28;20609;-74
2023/01/28 01:11:41;;;;;;;3.72;0.95;;;;;;;0.85;100.00;101922.78;5167704;28;20108;-73
2023/01/28 01:14:12;;;;;;;4.00;1.05;;;;;;;1.09;100.00;101917.34;5172852;28;20021;-74
2023/01/28 01:16:42;;;;;;;3.17;0.88;;;;;;;0.99;100.00;101928.25;5174923;28;20454;-73
2023/01/28 01:19:13;;;;;;;3.35;0.90;;;;;;;0.85;100.00;101932.19;5171818;28;20117;-73
2023/01/28 01:21:49;;;;;;;5.03;1.00;;;;;;;0.99;100.00;101930.81;5171139;28;20033;-75
2023/01/28 01:24:19;;;;;;;5.65;1.13;;;;;;;1.11;100.00;101933.69;5171527;28;20071;-72
2023/01/28 01:26:50;;;;;;;4.57;1.40;;;;;;;1.07;100.00;101937.91;5169823;28;20112;-74
2023/01/28 01:29:20;;;;;;;3.97;1.20;;;;;;;1.10;100.00;101937.97;5170540;28;20053;-73
2023/01/28 01:31:50;;;;;;;5.13;1.05;;;;;;;0.99;100.00;101939.44;5172275;28;20035;-73
2023/01/28 01:34:21;;;;;;;2.95;1.30;;;;;;;0.97;100.00;101935.94;5169727;28;20462;-74
2023/01/28 01:36:51;;;;;;;3.97;1.10;;;;;;;1.18;100.00;101935.56;5166766;28;20177;-73
2023/01/28 01:39:21;;;;;;;3.83;1.20;;;;;;;1.20;100.00;101939.94;5167390;28;20042;-74
2023/01/28 01:41:51;;;;;;;4.03;1.20;;;;;;;1.35;100.00;101929.13;5170191;28;20490;-74
2023/01/28 01:44:53;;;;;;;6.13;1.35;;;;;;;1.20;100.00;101928.78;5172474;28;20037;-72
2023/01/28 01:47:36;;;;;;;3.75;1.33;;;;;;;1.00;100.00;101929.97;5166095;28;20045;-72
2023/01/28 01:50:38;;;;;;;2.40;1.08;;;;;;;0.93;100.00;101930.69;5169659;28;20153;-73
2023/01/28 01:53:13;;;;;;;4.03;1.10;;;;;;;0.90;100.00;101939.19;5163180;28;20030;-75
2023/01/28 01:55:47;;;;;;;5.40;1.40;;;;;;;1.08;100.00;101931.91;5164280;28;20117;-74
2023/01/28 01:58:23;;;;;;;7.05;1.40;;;;;;;0.98;100.00;101934.22;5166620;28;20021;-74
2023/01/28 02:00:53;;;;;;;3.45;0.98;;;;;;;0.94;100.00;101928.16;5171654;28;20501;-73
2023/01/28 02:03:52;;;;;;;2.33;0.77;;;;;;;0.75;100.00;101938.78;5162538;28;20022;-73
2023/01/28 02:06:23;;;;;;;3.92;1.00;;;;;;;0.62;100.00;101944.47;5172666;28;20050;-74
2023/01/28 02:08:54;;;;;;;1.52;0.70;;;;;;;0.79;100.00;101945.78;5170956;28;20061;-74
2023/01/28 02:11:29;;;;;;;3.63;0.90;;;;;;;0.87;100.00;101944.25;5171570;28;20037;-72
2023/01/28 02:14:03;;;;;;;3.60;1.00;;;;;;;0.66;100.00;101938.56;5172497;28;20022;-73
2023/01/28 02:16:33;;;;;;;3.95;0.80;;;;;;;0.70;100.00;101947.25;5170375;28;20519;-74
2023/01/28 02:19:06;;;;;;;3.42;0.93;;;;;;;0.76;100.00;101940.53;5164038;28;20026;-74
2023/01/28 02:21:48;;;;;;;2.92;0.70;;;;;;;0.71;100.00;101946.41;5173267;28;20026;-73
2023/01/28 02:24:52;;;;;;;4.53;0.82;;;;;;;0.95;100.00;101937.63;5171576;28;20033;-74
2023/01/28 02:27:53;;;;;;;1.75;0.70;;;;;;;0.84;100.00;101949.34;5166918;28;20034;-73
2023/01/28 02:30:37;;;;;;;2.75;0.80;;;;;;;0.78;100.00;101951.75;5173716;28;20277;-74
2023/01/28 02:33:19;;;;;;;2.88;0.90;;;;;;;0.87;100.00;101951.97;5170226;28;20065;-75
2023/01/28 02:35:53;;;;;;;4.72;1.20;;;;;;;0.89;100.00;101950.31;5174331;28;20449;-73
2023/01/28 02:38:38;;;;;;;3.70;1.15;;;;;;;1.18;100.00;101951.03;5166250;28;20048;-73
2023/01/28 02:41:17;;;;;;;3.45;0.70;;;;;;;1.14;100.00;101947.53;5181767;28;20034;-74
2023/01/28 02:43:47;;;;;;;5.53;1.05;;;;;;;1.11;100.00;101950.03;5171650;28;20026;-74
2023/01/28 02:49:22;;;;;;;3.78;1.00;;;;;;;1.20;100.00;101937.38;5170764;28;20062;-75
2023/01/28 02:55:54;;;;;;;5.85;1.00;;;;;;;1.07;100.00;101940.47;5172347;28;20129;-74
2023/01/28 02:58:46;;;;;;;3.17;1.00;;;;;;;1.09;98.42;101941.38;5162996;28;20026;-74
2023/01/28 03:01:34;;;;;;;1.60;0.80;;;;;;;1.26;98.65;101929.78;5168430;28;20487;-72
2023/01/28 03:04:46;;;;;;;1.85;0.60;;;;;;;1.18;96.17;101930.44;5166540;28;20507;-72
2023/01/28 03:07:18;;;;;;;3.50;0.90;;;;;;;1.47;95.59;101930.28;5166989;28;20108;-74
2023/01/28 03:09:51;;;;;;;2.25;0.73;;;;;;;1.51;95.54;101933.78;5167944;28;20179;-74
2023/01/28 03:39:12;;;;;;;4.15;0.90;;;;;;;1.33;97.07;101931.69;5172131;28;20037;-74
2023/01/28 03:41:42;;;;;;;2.33;0.80;;;;;;;1.43;96.28;101933.59;5172663;28;20033;-73
2023/01/28 03:47:03;;;;;;;2.72;0.90;;;;;;;1.30;99.45;101931.59;5175559;28;20095;-74
2023/01/28 03:49:33;;;;;;;3.17;0.80;;;;;;;1.06;98.86;101936.16;5174557;28;20475;-73
2023/01/28 03:52:04;;;;;;;2.05;0.63;;;;;;;1.06;100.00;101933.59;5170422;28;20026;-75
2023/01/28 03:54:34;;;;;;;2.88;0.98;;;;;;;1.02;100.00;101939.50;5170183;28;20384;-73
2023/01/28 03:57:07;;;;;;;2.88;0.90;;;;;;;1.05;100.00;101939.56;5166183;28;20456;-73
2023/01/28 03:59:37;;;;;;;2.05;0.73;;;;;;;0.87;100.00;101943.41;5174362;28;20038;-73
2023/01/28 04:02:09;;;;;;;2.65;1.05;;;;;;;1.02;100.00;101944.66;5173965;28;20395;-73
2023/01/28 04:04:41;;;;;;;1.27;0.60;;;;;;;1.31;100.00;101932.47;5172120;28;20109;-73
2023/01/28 04:07:15;;;;;;;2.45;0.80;;;;;;;1.17;99.92;101934.72;5173655;28;20137;-73
2023/01/28 04:09:45;;;;;;;7.20;1.60;;;;;;;1.04;100.00;101930.09;5176264;28;20041;-74
2023/01/28 04:12:17;;;;;;;3.92;1.50;;;;;;;1.05;100.00;101941.28;5174884;28;20033;-74
2023/01/28 04:14:47;;;;;;;3.35;1.00;;;;;;;1.01;100.00;101940.34;5171054;28;20105;-74
2023/01/28 04:17:17;;;;;;;3.25;1.02;;;;;;;0.99;100.00;101947.16;5174711;28;20106;-73
2023/01/28 04:19:48;;;;;;;4.50;1.10;;;;;;;1.01;100.00;101942.91;5176321;28;20052;-73
2023/01/28 04:22:18;;;;;;;3.92;0.80;;;;;;;0.97;100.00;101946.25;5172325;28;20030;-75
2023/01/28 04:24:48;;;;;;;5.45;1.67;;;;;;;1.11;100.00;101952.59;5170241;28;20018;-73
2023/01/28 04:27:19;;;;;;;2.25;1.20;;;;;;;1.05;100.00;101949.84;5168605;28;20026;-73
2023/01/28 04:29:49;;;;;;;3.75;1.17;;;;;;;0.97;100.00;101947.94;5166257;28;20487;-74
2023/01/28 04:32:19;;;;;;;4.60;1.13;;;;;;;1.00;100.00;101945.44;5176766;28;20533;-74
2023/01/28 04:34:49;;;;;;;3.10;1.02;;;;;;;1.06;100.00;101953.31;5171134;28;20026;-73
2023/01/28 04:37:20;;;;;;;2.17;0.60;;;;;;;1.11;100.00;101947.47;5173329;28;20555;-73
2023/01/28 04:39:50;;;;;;;3.78;0.80;;;;;;;1.14;98.72;101947.53;5176188;28;20046;-73
2023/01/28 04:42:20;;;;;;;2.80;0.60;;;;;;;1.27;96.16;101952.09;5175225;28;20025;-73
2023/01/28 04:44:51;;;;;;;1.75;0.50;;;;;;;1.42;93.42;101955.03;5166719;28;20479;-73
2023/01/28 04:47:21;;;;;;;3.97;0.43;;;;;;;1.61;89.68;101961.50;5174318;28;20491;-73
2023/01/28 04:49:51;;;;;;;3.67;0.55;;;;;;;1.45;89.80;101962.88;5175989;28;20026;-73
2023/01/28 04:52:21;;;;;;;1.65;0.60;;;;;;;1.36;91.34;101966.91;5165476;28;20023;-74
2023/01/28 04:54:52;;;;;;;3.47;0.63;;;;;;;1.24;90.06;101958.91;5173365;28;20022;-74
2023/01/28 04:57:22;;;;;;;1.83;0.45;;;;;;;1.28;89.97;101968.44;5176312;28;20029;-75
2023/01/28 04:59:52;;;;;;;3.58;0.70;;;;;;;1.33;90.71;101967.72;5162747;28;20058;-73
2023/01/28 05:02:23;;;;;;;3.60;0.80;;;;;;;1.30;89.52;101970.22;5169179;28;20022;-74
2023/01/28 05:04:53;;;;;;;2.38;0.75;;;;;;;1.23;91.24;101981.19;5170223;28;20476;-74
2023/01/28 05:07:24;;;;;;;2.92;0.70;;;;;;;1.23;92.78;101970.03;5174623;28;20026;-74
2023/01/28 05:09:54;;;;;;;1.77;0.70;;;;;;;1.17;93.44;101973.34;5176996;28;20101;-74
2023/01/28 05:12:25;;;;;;;5.78;0.80;;;;;;;1.34;92.73;101986.59;5171004;28;20037;-73
2023/01/28 05:14:55;;;;;;;1.60;0.80;;;;;;;1.44;92.90;101984.28;5169685;28;20026;-73
2023/01/28 05:17:26;;;;;;;4.38;0.60;;;;;;;1.44;91.39;101978.28;5172407;28;20033;-73
2023/01/28 05:19:56;;;;;;;3.00;0.80;;;;;;;1.39;91.94;101975.59;5168898;28;20033;-72
2023/01/28 05:22:27;;;;;;;2.83;0.95;;;;;;;1.51;90.32;101968.16;5171516;28;20026;-73
2023/01/28 05:24:57;;;;;;;2.97;0.50;;;;;;;1.59;91.07;101970.91;5170239;28;20036;-73
2023/01/28 05:27:27;;;;;;;1.67;0.60;;;;;;;1.57;90.32;101976.00;5174782;28;20025;-73
2023/01/28 05:29:58;;;;;;;2.88;0.77;;;;;;;1.57;89.57;101980.31;5172209;28;20057;-73
2023/01/28 05:32:29;;;;;;;1.13;0.50;;;;;;;1.65;89.39;101971.91;5175371;28;20025;-74
2023/01/28 05:34:59;;;;;;;2.25;0.63;;;;;;;1.62;88.05;101963.25;5169015;28;20052;-73
2023/01/28 05:37:29;;;;;;;4.28;0.88;;;;;;;1.54;88.10;101968.22;5172461;28;20022;-73
2023/01/28 05:40:00;;;;;;;2.67;1.05;;;;;;;1.47;87.35;101970.59;5174765;28;20502;-73
2023/01/28 05:42:30;;;;;;;3.58;0.80;;;;;;;1.48;87.93;101969.78;5169286;28;20030;-75
2023/01/28 05:45:00;;;;;;;2.90;0.85;;;;;;;1.44;88.56;101960.25;5167887;28;20403;-73
2023/01/28 05:47:32;;;;;;;3.60;0.70;;;;;;;1.46;88.18;101964.59;5167721;28;20100;-75
2023/01/28 05:50:02;;;;;;;3.47;1.00;;;;;;;1.41;89.54;101971.34;5166608;28;20026;-74
2023/01/28 05:52:33;;;;;;;4.63;1.00;;;;;;;1.63;88.69;101970.13;5169961;28;20033;-74
2023/01/28 05:55:03;;;;;;;2.38;0.63;;;;;;;1.53;88.34;101979.34;5170422;28;20123;-72
2023/01/28 05:57:34;;;;;;;2.10;0.80;;;;;;;1.55;87.40;101980.25;5173652;28;20033;-74
2023/01/28 06:00:05;;;;;;;4.00;0.85;;;;;;;1.74;87.32;101977.25;5173474;28;20172;-75
2023/01/28 06:02:35;;;;;;;4.85;1.48;;;;;;;1.67;86.01;101967.66;5168726;28;20018;-73
2023/01/28 06:05:06;;;;;;;3.65;1.05;;;;;;;1.70;86.04;101970.31;5170645;28;20476;-73
2023/01/28 06:07:36;;;;;;;2.08;0.70;;;;;;;1.50;84.73;101971.56;5174262;28;20032;-73
2023/01/28 06:10:07;;;;;;;3.17;0.90;;;;;;;1.56;84.28;101968.25;5172901;28;20026;-73
2023/01/28 06:12:37;;;;;;;3.78;0.60;;;;;;;1.48;85.71;101972.34;5171026;28;20615;-74
2023/01/28 06:15:08;;;;;;;3.88;0.75;;;;;;;1.48;85.53;101967.19;5164043;28;20648;-74
2023/01/28 06:17:39;;;;;;;3.05;0.80;;;;;;;1.34;86.71;101972.03;5160344;28;20228;-73
2023/01/28 06:20:10;;;;;;;4.75;1.40;;;;;;;1.25;86.72;101968.38;5161120;28;20050;-74
2023/01/28 06:22:41;;;;;;;2.38;0.60;;;;;;;1.44;89.69;101975.69;5168067;28;20092;-74
2023/01/28 06:25:12;;;;;;;2.60;0.80;;;;;;;1.48;87.98;101972.34;5165144;28;20097;-74
2023/01/28 06:27:42;;;;;;;1.75;0.73;;;;;;;1.46;87.63;101974.91;5164326;28;20104;-74
2023/01/28 06:30:12;;;;;;;5.22;0.70;;;;;;;1.31;90.25;101984.84;5166357;28;20040;-74
2023/01/28 06:32:43;;;;;;;1.55;0.65;;;;;;;1.26;89.56;101981.25;5197776;22;20377;-72
2023/01/28 06:35:13;;;;;;;3.40;0.90;;;;;;;1.31;89.37;101983.97;5201372;28;20033;-72
2023/01/28 06:37:44;;;;;;;2.10;0.73;;;;;;;1.31;91.17;101989.09;5211971;28;20029;-72
2023/01/28 06:40:14;;;;;;;3.42;0.80;;;;;;;1.30;91.29;101984.78;5203486;28;20418;-73
2023/01/28 06:42:45;;;;;;;4.40;0.80;;;;;;;1.34;92.13;101989.19;5210475;28;20021;-72
2023/01/28 06:45:15;;;;;;;2.20;0.80;;;;;;;1.27;90.54;101989.88;5219029;28;20290;-72
2023/01/28 06:47:45;;;;;;;4.03;0.70;;;;;;;1.36;87.57;101987.50;5219612;28;20040;-73
2023/01/28 06:50:16;;;;;;;3.03;1.20;;;;;;;1.51;87.57;101988.75;5218494;28;20119;-73
2023/01/28 06:52:46;;;;;;;3.55;0.98;;;;;;;1.65;86.97;101984.78;5218749;28;20029;-72
2023/01/28 06:55:16;;;;;;;2.20;0.60;;;;;;;1.72;86.20;101986.66;5221093;28;20032;-72
2023/01/28 06:57:47;;;;;;;2.42;0.65;;;;;;;1.58;85.36;101998.34;5219563;28;20132;-70
2023/01/28 07:00:17;;;;;;;3.13;0.60;;;;;;;1.63;85.83;101983.91;5219348;28;20033;-73
2023/01/28 07:02:48;;;;;;;4.80;0.60;;;;;;;1.62;86.33;101986.41;5222251;28;20021;-73
2023/01/28 07:05:18;;;;;;;2.25;0.50;;;;;;;1.51;85.31;101993.91;5219043;28;20021;-73
2023/01/28 07:07:48;;;;;;;3.35;0.70;;;;;;;1.58;86.24;101993.19;5208567;28;20021;-72
2023/01/28 07:10:19;;;;;;;6.25;1.70;;;;;;;1.49;86.00;101995.59;5217780;28;20400;-72
2023/01/28 07:12:49;;;;;;;2.00;0.50;;;;;;;1.23;84.91;101995.78;5223615;28;20149;-73
2023/01/28 07:15:19;;;;;;;2.30;0.60;;;;;;;1.26;83.29;101994.13;5218232;28;20029;-72
2023/01/28 07:17:49;;;;;;;2.80;0.80;;;;;;;1.18;85.80;102002.50;5209973;28;20529;-72
2023/01/28 07:20:21;;;;;;;0.55;0.50;;;;;;;1.20;85.10;102001.72;5207285;28;20139;-72
2023/01/28 07:22:51;;;;;;;1.77;0.68;;;;;;;1.31;84.62;102000.28;5216473;28;20025;-71
2023/01/28 07:25:21;;;;;;;3.00;0.80;;;;;;;1.41;85.69;102001.38;5219722;28;20032;-72
2023/01/28 07:27:52;;;;;;;2.55;0.60;;;;;;;1.40;87.12;102005.66;5217577;28;20394;-73
2023/01/28 07:30:23;;;;;;;1.60;0.77;;;;;;;1.58;87.36;102003.50;5218639;28;20442;-72
2023/01/28 07:32:55;;;;;;;1.60;0.80;;;;;;;1.40;86.48;102004.78;5220296;28;20025;-72
2023/01/28 07:35:26;;;;;;;4.22;0.90;;;;;;;1.38;87.79;102004.75;5219754;28;20502;-73
2023/01/28 07:37:59;;;;;;;10.98;6.32;;;;;;;1.56;87.81;102000.03;5218190;28;20111;-72
2023/01/28 07:40:29;;;;;;;6.68;2.10;;;;;;;1.65;86.00;102005.41;5209106;28;20530;-71
2023/01/28 07:43:00;;;;;;;2.15;0.70;;;;;;;1.51;85.48;102004.22;5219132;28;20033;-72
2023/01/28 07:45:30;;;;;;;1.35;0.60;;;;;;;1.47;84.09;101997.25;5219054;28;20028;-72
2023/01/28 07:48:06;;;;;;;1.73;0.65;;;;;;;1.53;83.60;101999.06;5208797;28;20490;-73
2023/01/28 07:50:37;;;;;;;2.80;0.90;;;;;;;1.39;80.98;101997.91;5218540;28;20029;-72
2023/01/28 07:53:10;;;;;;;4.45;0.80;;;;;;;1.37;80.77;101997.00;5220840;28;20036;-72
2023/01/28 07:55:40;;;;;;;5.70;1.00;;;;;;;1.47;82.12;102001.53;5220261;28;20029;-72
2023/01/28 07:58:11;;;;;;;2.65;0.85;;;;;;;1.69;82.89;101998.59;5217964;28;20024;-72
2023/01/28 08:00:41;;;;;;;2.92;1.20;;;;;;;1.63;84.27;102004.50;5213895;28;20025;-72
2023/01/28 08:03:14;;;;;;;13.25;6.68;;;;;;;1.54;85.63;101998.28;5218617;28;20029;-71
2023/01/28 08:05:47;;;;;;;24.10;13.55;;;;;;;1.45;86.99;101996.34;5223680;28;20025;-72
2023/01/28 08:08:18;;;;;;;6.18;2.95;;;;;;;1.45;85.65;102001.50;5222828;28;20083;-73
2023/01/28 08:10:48;;;;;;;5.07;0.70;;;;;;;1.46;82.89;102013.53;5223813;28;20062;-73
2023/01/28 08:13:19;;;;;;;2.50;0.70;;;;;;;1.42;83.49;102006.56;5222870;28;20075;-72
2023/01/28 08:15:54;;;;;;;3.55;0.90;;;;;;;1.57;83.60;102013.78;5221836;28;20052;-72
2023/01/28 08:18:24;;;;;;;2.53;1.00;;;;;;;1.81;84.69;102017.81;5223331;28;20024;-72
2023/01/28 08:20:56;;;;;;;2.50;0.70;;;;;;;1.78;82.55;102020.28;5223397;28;20493;-72
2023/01/28 08:23:26;;;;;;;4.47;1.67;;;;;;;1.82;83.91;102027.28;5221974;28;20394;-72
2023/01/28 08:25:58;;;;;;;1.95;1.00;;;;;;;1.67;84.29;102028.59;5222026;28;20021;-73
2023/01/28 08:28:28;;;;;;;2.28;0.80;;;;;;;1.38;80.30;102034.78;5222649;28;20028;-72
2023/01/28 08:31:00;;;;;;;3.05;0.95;;;;;;;1.29;81.17;102035.44;5216920;28;20391;-72
2023/01/28 08:33:30;;;;;;;1.85;0.77;;;;;;;1.46;82.29;102035.84;5220352;28;20021;-73
2023/01/28 08:36:04;;;;;;;2.53;0.90;;;;;;;1.48;81.58;102040.19;5221680;28;20240;-72
2023/01/28 08:38:34;;;;;;;2.60;0.90;;;;;;;1.63;81.65;102039.69;5219952;28;20037;-72
2023/01/28 08:41:04;;;;;;;1.50;0.90;;;;;;;1.38;82.31;102043.38;5221883;28;20471;-72
2023/01/28 08:43:35;;;;;;;1.90;1.00;;;;;;;1.58;83.04;102046.44;5213099;28;20044;-72
2023/01/28 08:46:06;;;;;;;4.47;1.10;;;;;;;1.70;82.07;102051.88;5222382;28;20222;-72
2023/01/28 08:48:37;;;;;;;3.50;1.20;;;;;;;1.75;82.86;102053.72;5212573;28;20102;-72
2023/01/28 08:51:07;;;;;;;1.63;1.13;;;;;;;1.71;82.59;102056.22;5219360;28;20036;-72
2023/01/28 08:53:38;;;;;;;3.28;2.00;;;;;;;1.89;83.91;102054.91;5220959;28;20024;-73
2023/01/28 08:56:08;;;;;;;4.97;1.40;;;;;;;1.79;84.38;102068.44;5221362;28;20028;-72
2023/01/28 08:58:39;;;;;;;1.90;0.90;;;;;;;1.74;83.64;102059.72;5221420;28;20017;-73
2023/01/28 09:01:10;;;;;;;4.07;0.80;;;;;;;1.79;83.80;102073.59;5222520;28;20089;-72
2023/01/28 09:03:40;;;;;;;1.77;0.60;;;;;;;1.82;81.69;102079.66;5222626;28;20064;-73
2023/01/28 09:06:10;;;;;;;2.97;0.73;;;;;;;1.87;81.97;102074.63;5225364;28;20461;-72
2023/01/28 09:08:41;;;;;;;2.92;0.80;;;;;;;1.86;81.62;102086.63;5209550;28;20029;-72
2023/01/28 09:11:11;;;;;;;2.83;0.90;;;;;;;1.70;80.52;102093.97;5219228;28;20124;-72
2023/01/28 09:13:41;;;;;;;2.47;0.60;;;;;;;1.67;79.94;102088.75;5223701;28;20032;-72
2023/01/28 09:16:11;;;;;;;1.38;0.50;;;;;;;1.55;80.46;102070.41;5221458;28;20024;-72
2023/01/28 09:18:42;;;;;;;1.05;0.38;;;;;;;1.60;80.23;102080.84;5221973;28;20033;-72
2023/01/28 09:21:12;;;;;;;1.02;0.47;;;;;;;1.59;80.73;102079.09;5222444;28;20036;-73
2023/01/28 09:23:42;;;;;;;1.63;0.50;;;;;;;1.72;79.26;102081.13;5225417;28;20316;-72
2023/01/28 09:26:13;;;;;;;1.90;0.60;;;;;;;1.86;80.70;102084.06;5222388;28;20055;-72
2023/01/28 09:28:43;;;;;;;1.73;0.60;;;;;;;1.88;81.66;102097.00;5216512;28;20036;-72
2023/01/28 09:31:14;;;;;;;2.17;0.90;;;;;;;1.76;80.48;102106.13;5220517;28;20485;-73
2023/01/28 09:33:46;;;;;;;2.60;0.75;;;;;;;1.86;81.05;102108.97;5221784;28;20589;-72
2023/01/28 09:36:17;;;;;;;2.13;0.95;;;;;;;2.26;82.02;102104.78;5221779;28;20116;-72
2023/01/28 09:38:47;;;;;;;3.53;0.85;;;;;;;2.37;81.07;102103.28;5220440;28;20108;-73
2023/01/28 09:41:56;;;;;;;2.63;1.17;;;;;;;2.61;80.81;102102.94;5215694;28;20437;-73
2023/01/28 09:44:52;;;;;;;4.55;1.00;;;;;;;2.35;80.78;102112.69;5210240;28;20287;-73
2023/01/28 09:47:34;;;;;;;1.75;0.80;;;;;;;2.22;80.83;102104.66;5219301;28;20093;-73
2023/01/28 09:50:10;;;;;;;4.13;0.90;;;;;;;2.37;80.44;102102.44;5220062;28;20406;-73
2023/01/28 09:52:41;;;;;;;2.20;0.90;;;;;;;2.25;79.86;102115.03;5222690;28;20024;-73
2023/01/28 09:55:33;;;;;;;3.28;0.90;;;;;;;2.60;79.51;102114.09;5222413;28;20508;-73
2023/01/28 09:58:09;;;;;;;2.05;1.13;;;;;;;2.68;78.14;102122.88;5217836;28;20029;-73
2023/01/28 10:01:01;;;;;;;3.17;0.90;;;;;;;2.64;78.40;102124.53;5222018;28;20021;-73
2023/01/28 10:03:58;;;;;;;2.95;0.80;;;;;;;2.44;79.54;102135.25;5219199;28;20052;-73
2023/01/28 10:07:07;;;;;;;3.53;1.00;;;;;;;2.49;80.43;102129.34;5220553;28;20020;-73
2023/01/28 10:09:59;;;;;;;2.55;0.93;;;;;;;2.38;80.31;102135.13;5197053;28;20412;-72
2023/01/28 10:12:41;;;;;;;2.20;0.85;;;;;;;2.37;80.54;102129.06;5217878;28;20401;-73
2023/01/28 10:15:46;;;;;;;2.38;0.73;;;;;;;2.33;79.86;102126.41;5217976;28;20036;-72
2023/01/28 10:18:42;;;;;;;3.17;0.73;;;;;;;2.20;78.28;102103.75;5215897;28;20048;-72
2023/01/28 10:21:35;;;;;;;2.92;0.80;;;;;;;2.10;80.33;102114.69;5200540;28;21292;-72
2023/01/28 10:24:30;;;;;;;5.50;1.30;;;;;;;2.21;81.07;102110.66;5219812;28;20082;-72
2023/01/28 10:27:08;;;;;;;3.70;1.17;;;;;;;2.27;80.27;102108.19;5219449;28;20052;-73
2023/01/28 10:29:42;;;;;;;2.97;0.82;;;;;;;2.17;80.78;102090.81;5218858;28;20033;-73
2023/01/28 10:32:29;;;;;;;2.13;0.90;;;;;;;2.33;80.51;102100.63;5220241;28;20474;-72
2023/01/28 10:35:02;;;;;;;1.55;0.70;;;;;;;2.36;81.78;102098.09;5226285;28;20035;-72
2023/01/28 10:37:35;;;;;;;4.45;1.13;;;;;;;2.33;81.01;102095.47;5216531;28;20487;-73
2023/01/28 10:40:13;;;;;;;3.50;0.90;;;;;;;2.33;80.38;102091.16;5220815;28;20037;-73
2023/01/28 10:42:44;;;;;;;3.67;0.88;;;;;;;2.46;79.59;102094.88;5219453;28;20021;-72
2023/01/28 10:45:19;;;;;;;4.72;1.02;;;;;;;2.31;79.82;102094.56;5222669;28;20234;-72
2023/01/28 10:47:58;;;;;;;3.28;1.70;;;;;;;2.20;79.79;102098.59;5219909;28;20589;-73
2023/01/28 10:50:30;;;;;;;5.57;1.92;;;;;;;2.47;80.75;102096.63;5216299;28;20036;-73
2023/01/28 10:53:04;;;;;;;2.53;1.13;;;;;;;2.39;79.29;102090.44;5220103;28;20025;-73
2023/01/28 10:55:57;;;;;;;5.15;1.20;;;;;;;2.36;80.83;102091.22;5217141;28;20028;-73
2023/01/28 10:58:29;;;;;;;3.25;0.82;;;;;;;2.28;80.21;102090.19;5217651;28;20108;-73
2023/01/28 11:01:03;;;;;;;1.98;0.82;;;;;;;2.25;80.12;102086.66;5218515;28;20105;-73
2023/01/28 11:03:52;;;;;;;3.45;1.00;;;;;;;2.23;80.38;102084.09;5217830;28;20039;-72
2023/01/28 11:06:29;;;;;;;3.15;0.85;;;;;;;2.35;79.74;102083.47;5220128;28;20021;-73
2023/01/28 11:08:59;;;;;;;1.90;0.60;;;;;;;2.40;80.44;102082.72;5216811;28;20025;-73
2023/01/28 11:11:30;;;;;;;2.30;1.00;;;;;;;2.53;79.86;102084.72;5216292;28;20375;-73
2023/01/28 11:14:00;;;;;;;2.95;0.90;;;;;;;2.60;78.75;102084.00;5219201;28;20029;-72
2023/01/28 11:16:30;;;;;;;3.78;0.90;;;;;;;2.47;81.03;102086.31;5221093;28;20102;-73
2023/01/28 11:19:06;;;;;;;2.63;1.10;;;;;;;2.45;81.43;102087.97;5219323;28;20720;-73
2023/01/28 11:21:37;;;;;;;6.05;1.20;;;;;;;2.63;79.90;102085.75;5219668;28;20029;-72
2023/01/28 11:24:18;;;;;;;2.60;1.08;;;;;;;2.81;79.45;102087.03;5199838;28;20036;-72
2023/01/28 11:26:53;;;;;;;2.45;0.80;;;;;;;2.46;77.68;102102.59;5218508;28;20070;-73
2023/01/28 11:29:28;;;;;;;3.03;1.00;;;;;;;2.45;78.28;102106.03;5219353;28;20543;-73
2023/01/28 11:31:59;;;;;;;2.13;1.08;;;;;;;2.47;79.71;102099.22;5218797;28;20078;-73
2023/01/28 11:34:33;;;;;;;3.00;1.20;;;;;;;2.40;80.13;102097.31;5222401;28;20124;-72
2023/01/28 11:37:15;;;;;;;3.22;1.13;;;;;;;2.32;78.96;102098.88;5218680;28;20032;-73
2023/01/28 11:39:45;;;;;;;3.80;1.35;;;;;;;2.45;79.86;102101.75;5222221;28;20490;-73
2023/01/28 11:42:19;;;;;;;2.72;1.10;;;;;;;2.38;80.30;102093.84;5221201;28;20102;-72
2023/01/28 11:44:49;;;;;;;4.18;1.35;;;;;;;2.42;80.31;102096.53;5218087;28;20472;-72
2023/01/28 11:47:43;;;;;;;2.60;1.30;;;;;;;2.34;81.02;102095.47;5218855;28;20112;-73
2023/01/28 11:50:43;;;;;;;6.53;1.58;;;;;;;2.37;79.48;102080.06;5220961;28;20025;-72
2023/01/28 11:53:18;;;;;;;4.50;1.95;;;;;;;2.23;78.96;102083.19;5222298;28;20025;-72
2023/01/28 11:55:57;;;;;;;3.75;1.55;;;;;;;2.30;79.72;102077.34;5223168;28;20029;-72
2023/01/28 11:59:01;;;;;;;3.58;1.20;;;;;;;2.26;78.54;102072.94;5222129;28;20493;-72
2023/01/28 12:01:52;;;;;;;2.22;1.20;;;;;;;2.34;79.02;102063.69;5220388;28;20031;-73
2023/01/28 12:04:40;;;;;;;1.83;1.10;;;;;;;2.33;78.46;102072.25;5222503;28;20025;-73
2023/01/28 12:07:32;;;;;;;5.35;1.83;;;;;;;2.27;80.11;102072.09;5220772;28;20025;-73
2023/01/28 12:10:08;;;;;;;4.05;1.80;;;;;;;2.11;80.79;102067.44;5223228;28;20524;-71
2023/01/28 12:13:16;;;;;;;5.53;2.10;;;;;;;2.28;79.92;102066.09;5222073;28;20040;-73
2023/01/28 12:16:07;;;;;;;5.03;2.13;;;;;;;2.36;79.96;102062.84;5220460;28;20272;-72
2023/01/28 12:18:52;;;;;;;4.78;2.22;;;;;;;2.43;79.66;102046.69;5221550;28;20082;-73
2023/01/28 12:21:47;;;;;;;5.63;2.20;;;;;;;2.40;79.24;102038.88;5219710;28;20025;-72
2023/01/28 12:24:49;;;;;;;4.25;2.10;;;;;;;2.46;78.86;102040.69;5221230;28;20040;-72
2023/01/28 12:27:29;;;;;;;3.33;2.03;;;;;;;2.13;78.80;102034.84;5220338;28;20055;-72
2023/01/28 12:30:24;;;;;;;4.88;2.10;;;;;;;2.32;77.93;102026.66;5221102;28;20055;-73
2023/01/28 12:33:07;;;;;;;4.22;2.10;;;;;;;2.28;77.04;102017.09;5436325;23;20021;-74
2023/01/28 12:36:06;;;;;;;4.10;2.10;;;;;;;2.32;78.94;102021.50;5145760;28;20032;-74
2023/01/28 12:38:51;;;;;;;5.22;2.30;;;;;;;2.50;78.34;102016.72;5149083;28;20037;-74
2023/01/28 12:41:28;;;;;;;5.10;2.50;;;;;;;2.65;76.54;102025.63;5151976;28;20525;-74
2023/01/28 12:44:07;;;;;;;6.43;2.70;;;;;;;2.64;77.84;102020.41;5165328;28;20025;-73
2023/01/28 12:46:45;;;;;;;5.43;2.55;;;;;;;2.78;78.24;102008.66;5172791;28;20029;-73